createdAt,value
2019-01-24T00:02:20.010Z,45.47
2019-01-24T00:04:47.519Z,43.97
2019-01-24T00:07:14.511Z,41.63
2019-01-24T00:09:41.605Z,42.97
2019-01-24T00:12:08.742Z,46.00
2019-01-24T00:14:35.811Z,43.83
2019-01-24T00:17:03.213Z,44.33
2019-01-24T00:19:30.271Z,41.97
2019-01-24T00:21:57.497Z,44.57
2019-01-24T00:24:24.470Z,41.40
2019-01-24T00:26:51.673Z,42.53
2019-01-24T00:29:18.952Z,40.67
2019-01-24T00:31:46.082Z,39.80
2019-01-24T00:34:13.178Z,37.07
2019-01-24T00:36:40.159Z,38.10
2019-01-24T00:39:07.813Z,40.20
2019-01-24T00:41:35.210Z,40.27
2019-01-24T00:44:02.970Z,39.57
2019-01-24T00:46:30.310Z,40.17
2019-01-24T00:48:58.093Z,41.17
2019-01-24T00:51:25.244Z,36.47
2019-01-24T00:53:52.271Z,35.20
2019-01-24T00:56:19.666Z,34.90
2019-01-24T00:58:46.695Z,34.60
2019-01-24T01:01:13.819Z,37.23
2019-01-24T01:03:41.205Z,33.33
2019-01-24T01:06:08.327Z,35.97
2019-01-24T01:08:35.335Z,32.33
2019-01-24T01:11:03.063Z,33.53
2019-01-24T01:13:30.439Z,32.33
2019-01-24T01:15:57.977Z,32.30
2019-01-24T01:18:25.083Z,34.93
2019-01-24T01:20:52.179Z,33.27
2019-01-24T01:23:19.940Z,29.57
2019-01-24T01:25:47.069Z,29.83
2019-01-24T01:28:14.184Z,29.97
2019-01-24T01:30:41.698Z,27.93
2019-01-24T01:33:08.939Z,28.50
2019-01-24T01:35:36.064Z,32.13
2019-01-24T01:38:03.270Z,28.67
2019-01-24T01:40:30.315Z,28.07
2019-01-24T01:42:58.187Z,26.57
2019-01-24T01:45:25.471Z,26.60
2019-01-24T01:47:52.828Z,27.03
2019-01-24T01:50:21.974Z,27.63
2019-01-24T01:52:49.422Z,26.77
2019-01-24T01:55:16.656Z,27.07
2019-01-24T01:57:44.244Z,27.20
2019-01-24T02:00:14.786Z,25.87
2019-01-24T02:02:42.075Z,27.50
2019-01-24T02:05:09.882Z,27.23
2019-01-24T02:07:37.182Z,27.20
2019-01-24T02:10:07.463Z,25.90
2019-01-24T02:12:34.488Z,26.80
2019-01-24T02:15:01.577Z,28.77
2019-01-24T02:17:29.964Z,27.43
2019-01-24T02:19:56.991Z,27.27
2019-01-24T02:22:24.371Z,25.93
2019-01-24T02:24:51.516Z,28.50
2019-01-24T02:27:18.568Z,26.43
2019-01-24T02:29:45.759Z,26.00
2019-01-24T02:32:13.004Z,26.17
2019-01-24T02:34:40.038Z,27.57
2019-01-24T02:37:07.077Z,28.20
2019-01-24T02:39:34.430Z,26.73
2019-01-24T02:42:01.975Z,28.13
2019-01-24T02:44:28.987Z,27.27
2019-01-24T02:46:56.749Z,26.90
2019-01-24T02:49:23.908Z,26.63
2019-01-24T02:51:50.920Z,27.43
2019-01-24T02:54:18.343Z,24.77
2019-01-24T02:56:45.447Z,26.77
2019-01-24T02:59:12.522Z,26.80
2019-01-24T03:01:39.482Z,26.50
2019-01-24T03:04:06.712Z,24.10
2019-01-24T03:06:34.085Z,26.13
2019-01-24T03:09:01.439Z,25.43
2019-01-24T03:11:30.124Z,24.33
2019-01-24T03:13:57.212Z,24.60
2019-01-24T03:16:24.532Z,24.90
2019-01-24T03:18:51.510Z,24.10
2019-01-24T03:21:18.618Z,24.43
2019-01-24T03:23:45.732Z,25.70
2019-01-24T03:26:13.461Z,25.43
2019-01-24T03:28:40.472Z,24.40
2019-01-24T03:31:07.543Z,25.37
2019-01-24T03:33:34.608Z,25.80
2019-01-24T03:36:01.594Z,23.23
2019-01-24T03:38:28.592Z,24.60
2019-01-24T03:40:55.940Z,22.97
2019-01-24T03:43:22.958Z,23.47
2019-01-24T03:45:50.182Z,22.60
2019-01-24T03:48:17.232Z,22.10
2019-01-24T03:50:44.204Z,23.53
2019-01-24T03:53:11.374Z,21.87
2019-01-24T03:55:38.600Z,22.10
2019-01-24T03:58:05.692Z,23.27
2019-01-24T04:00:33.035Z,22.60
2019-01-24T04:03:00.015Z,23.80
2019-01-24T04:05:26.987Z,22.70
2019-01-24T04:07:53.954Z,22.63
2019-01-24T04:10:21.365Z,21.30
2019-01-24T04:12:48.686Z,22.27
2019-01-24T04:15:18.037Z,21.50
2019-01-24T04:17:45.011Z,22.73
2019-01-24T04:20:12.331Z,23.93
2019-01-24T04:22:39.420Z,22.00
2019-01-24T04:25:06.719Z,22.90
2019-01-24T04:27:34.165Z,22.93
2019-01-24T04:30:01.252Z,21.70
2019-01-24T04:32:28.255Z,23.20
2019-01-24T04:34:55.218Z,21.40
2019-01-24T04:37:22.543Z,22.37
2019-01-24T04:39:49.771Z,19.80
2019-01-24T04:42:17.089Z,21.37
2019-01-24T04:44:44.163Z,20.17
2019-01-24T04:47:11.244Z,21.20
2019-01-24T04:49:38.627Z,20.10
2019-01-24T04:52:05.718Z,22.23
2019-01-24T04:54:32.820Z,19.83
2019-01-24T04:57:00.066Z,18.10
2019-01-24T04:59:27.053Z,19.73
2019-01-24T05:01:54.021Z,20.57
2019-01-24T05:04:21.312Z,19.83
2019-01-24T05:06:48.299Z,19.43
2019-01-24T05:09:15.507Z,19.47
2019-01-24T05:11:42.843Z,19.83
2019-01-24T05:14:09.874Z,20.17
2019-01-24T05:16:36.970Z,20.57
2019-01-24T05:19:03.962Z,19.83
2019-01-24T05:21:31.105Z,19.63
2019-01-24T05:23:58.450Z,21.40
2019-01-24T05:26:25.490Z,20.03
2019-01-24T05:28:52.855Z,20.87
2019-01-24T05:31:20.031Z,20.90
2019-01-24T05:33:47.332Z,19.17
2019-01-24T05:36:15.171Z,19.83
2019-01-24T05:38:42.208Z,20.30
2019-01-24T05:41:09.204Z,18.60
2019-01-24T05:43:36.702Z,20.80
2019-01-24T05:46:03.838Z,20.80
2019-01-24T05:48:31.194Z,19.23
2019-01-24T05:50:58.241Z,19.40
2019-01-24T05:53:25.234Z,20.00
2019-01-24T05:55:52.243Z,19.67
2019-01-24T05:58:19.355Z,18.43
2019-01-24T06:00:46.682Z,19.20
2019-01-24T06:03:13.683Z,18.50
2019-01-24T06:05:41.860Z,19.57
2019-01-24T06:08:09.146Z,18.70
2019-01-24T06:10:36.187Z,18.87
2019-01-24T06:13:03.475Z,18.10
2019-01-24T06:15:30.579Z,19.27
2019-01-24T06:17:57.583Z,18.93
2019-01-24T06:20:24.615Z,19.67
2019-01-24T06:22:51.971Z,20.73
2019-01-24T06:25:19.002Z,20.10
2019-01-24T06:27:46.255Z,20.33
2019-01-24T06:30:16.285Z,19.60
2019-01-24T06:32:43.390Z,21.17
2019-01-24T06:35:10.631Z,20.73
2019-01-24T06:37:38.368Z,22.40
2019-01-24T06:40:06.493Z,20.70
2019-01-24T06:42:33.492Z,21.20
2019-01-24T06:45:00.579Z,23.70
2019-01-24T06:47:27.692Z,21.10
2019-01-24T06:49:54.748Z,21.67
2019-01-24T06:52:22.042Z,22.00
2019-01-24T06:54:49.025Z,22.33
2019-01-24T06:57:16.046Z,23.17
2019-01-24T06:59:43.424Z,22.87
2019-01-24T07:02:10.718Z,21.90
2019-01-24T07:04:38.378Z,22.63
2019-01-24T07:07:05.995Z,22.83
2019-01-24T07:09:32.991Z,23.10
2019-01-24T07:12:00.038Z,22.63
2019-01-24T07:14:27.041Z,22.70
2019-01-24T07:16:54.914Z,23.27
2019-01-24T07:19:21.983Z,23.87
2019-01-24T07:21:48.999Z,23.17
2019-01-24T07:24:16.092Z,22.43
2019-01-24T07:26:43.137Z,23.87
2019-01-24T07:29:10.123Z,22.37
2019-01-24T07:31:37.176Z,23.10
2019-01-24T07:34:04.470Z,22.70
2019-01-24T07:36:31.548Z,23.57
2019-01-24T07:38:58.978Z,23.53
2019-01-24T07:41:26.172Z,22.43
2019-01-24T07:43:53.197Z,22.33
2019-01-24T07:46:20.473Z,23.70
2019-01-24T07:48:47.447Z,22.03
2019-01-24T07:51:14.418Z,21.90
2019-01-24T07:53:41.517Z,22.77
2019-01-24T07:56:08.596Z,23.27
2019-01-24T07:58:35.874Z,25.00
2019-01-24T08:01:03.392Z,22.70
2019-01-24T08:03:30.963Z,22.97
2019-01-24T08:05:58.065Z,23.57
2019-01-24T08:08:25.306Z,23.87
2019-01-24T08:10:52.383Z,23.20
2019-01-24T08:13:20.371Z,22.33
2019-01-24T08:15:47.387Z,24.30
2019-01-24T08:18:14.387Z,24.43
2019-01-24T08:20:41.346Z,22.77
2019-01-24T08:23:12.123Z,25.13
2019-01-24T08:25:40.326Z,24.50
2019-01-24T08:28:07.419Z,24.07
2019-01-24T08:30:34.705Z,23.70
2019-01-24T08:33:01.782Z,23.67
2019-01-24T08:35:28.983Z,25.17
2019-01-24T08:37:56.569Z,24.37
2019-01-24T08:40:23.716Z,25.33
2019-01-24T08:42:50.882Z,24.07
2019-01-24T08:45:18.617Z,24.03
2019-01-24T08:47:45.718Z,24.67
2019-01-24T08:50:15.364Z,24.37
2019-01-24T08:52:42.888Z,24.53
2019-01-24T08:55:18.919Z,25.17
2019-01-24T08:57:46.143Z,23.17
2019-01-24T09:00:15.222Z,24.37
2019-01-24T09:02:42.250Z,25.40
2019-01-24T09:05:09.879Z,24.13
2019-01-24T09:07:37.440Z,24.67
2019-01-24T09:10:05.142Z,24.90
2019-01-24T09:12:32.205Z,24.37
2019-01-24T09:14:59.464Z,23.47
2019-01-24T09:17:27.057Z,23.73
2019-01-24T09:19:54.475Z,25.53
2019-01-24T09:22:21.843Z,24.57
2019-01-24T09:24:48.823Z,23.37
2019-01-24T09:27:15.930Z,24.67
2019-01-24T09:29:42.979Z,25.63
2019-01-24T09:32:10.039Z,26.57
2019-01-24T09:34:37.287Z,26.30
2019-01-24T09:37:04.332Z,23.80
2019-01-24T09:39:31.499Z,23.20
2019-01-24T09:41:58.682Z,21.30
2019-01-24T09:44:26.189Z,23.10
2019-01-24T09:46:53.188Z,23.20
2019-01-24T09:49:20.412Z,21.90
2019-01-24T09:51:47.421Z,23.13
2019-01-24T09:54:14.459Z,20.70
2019-01-24T09:56:41.543Z,22.63
2019-01-24T09:59:08.551Z,22.90
2019-01-24T10:01:35.893Z,22.43
2019-01-24T10:04:03.046Z,21.40
2019-01-24T10:06:36.081Z,22.57
2019-01-24T10:08:59.268Z,25.47
2019-01-24T10:11:26.257Z,23.50
2019-01-24T10:13:53.646Z,23.70
2019-01-24T10:16:20.788Z,21.83
2019-01-24T10:18:47.969Z,22.87
2019-01-24T10:21:15.525Z,23.67
2019-01-24T10:23:42.564Z,22.63
2019-01-24T10:26:09.595Z,24.73
2019-01-24T10:28:36.631Z,23.30
2019-01-24T10:31:03.861Z,22.80
2019-01-24T10:33:30.992Z,23.83
2019-01-24T10:35:57.982Z,24.40
2019-01-24T10:38:25.253Z,24.03
2019-01-24T10:40:52.649Z,23.10
2019-01-24T10:43:19.640Z,23.90
2019-01-24T10:45:46.873Z,24.77
2019-01-24T10:48:14.127Z,23.77
2019-01-24T10:50:41.660Z,25.23
2019-01-24T10:53:08.766Z,24.23
2019-01-24T10:55:35.827Z,24.00
2019-01-24T10:58:04.367Z,22.97
2019-01-24T11:00:34.106Z,24.70
2019-01-24T11:03:03.091Z,23.50
2019-01-24T11:05:30.823Z,24.17
2019-01-24T11:07:57.982Z,24.37
2019-01-24T11:10:25.191Z,23.40
2019-01-24T11:12:52.400Z,22.77
2019-01-24T11:15:20.893Z,24.13
2019-01-24T11:17:48.579Z,24.33
2019-01-24T11:20:16.982Z,23.60
2019-01-24T11:22:44.246Z,23.73
2019-01-24T11:25:13.708Z,23.80
2019-01-24T11:27:41.040Z,22.63
2019-01-24T11:30:10.176Z,24.60
2019-01-24T11:32:37.481Z,26.63
2019-01-24T11:35:07.655Z,25.03
2019-01-24T11:37:34.702Z,24.40
2019-01-24T11:40:01.972Z,25.93
2019-01-24T11:42:28.980Z,26.03
2019-01-24T11:44:56.117Z,24.83
2019-01-24T11:47:23.170Z,24.13
2019-01-24T11:49:50.592Z,25.93
2019-01-24T11:52:17.731Z,24.23
2019-01-24T11:54:44.725Z,26.53
2019-01-24T11:57:12.301Z,25.13
2019-01-24T11:59:40.327Z,23.90
2019-01-24T12:02:07.493Z,26.70
2019-01-24T12:04:34.524Z,24.97
2019-01-24T12:07:04.273Z,24.00
2019-01-24T12:09:30.743Z,23.63
2019-01-24T12:11:57.956Z,25.43
2019-01-24T12:14:24.963Z,24.77
2019-01-24T12:16:52.320Z,23.97
2019-01-24T12:19:19.683Z,23.03
2019-01-24T12:21:46.798Z,22.73
2019-01-24T12:24:13.973Z,23.10
2019-01-24T12:26:40.980Z,25.40
2019-01-24T12:29:08.082Z,26.67
2019-01-24T12:31:35.496Z,25.70
2019-01-24T12:34:02.723Z,24.93
2019-01-24T12:36:29.987Z,27.20
2019-01-24T12:38:57.342Z,25.23
2019-01-24T12:41:24.720Z,25.07
2019-01-24T12:43:52.063Z,23.40
2019-01-24T12:46:19.173Z,24.13
2019-01-24T12:48:47.169Z,24.47
2019-01-24T12:51:14.447Z,25.10
2019-01-24T12:53:41.607Z,26.03
2019-01-24T12:56:08.692Z,25.10
2019-01-24T12:58:35.803Z,24.80
2019-01-24T13:01:03.088Z,24.77
2019-01-24T13:03:30.176Z,25.17
2019-01-24T13:05:57.544Z,22.60
2019-01-24T13:08:25.389Z,26.30
2019-01-24T13:10:52.810Z,24.00
2019-01-24T13:13:19.843Z,25.60
2019-01-24T13:15:47.630Z,26.33
2019-01-24T13:18:14.967Z,24.97
2019-01-24T13:20:42.126Z,25.23
2019-01-24T13:23:09.271Z,24.57
2019-01-24T13:25:36.400Z,23.23
2019-01-24T13:28:04.759Z,23.63
2019-01-24T13:30:32.568Z,24.37
2019-01-24T13:33:00.118Z,26.70
2019-01-24T13:35:27.392Z,26.23
2019-01-24T13:37:54.805Z,25.13
2019-01-24T13:40:24.701Z,25.23
2019-01-24T13:42:51.842Z,24.30
2019-01-24T13:45:21.475Z,25.17
2019-01-24T13:47:49.288Z,24.20
2019-01-24T13:50:16.913Z,24.50
2019-01-24T13:52:44.568Z,24.33
2019-01-24T13:55:12.567Z,23.17
2019-01-24T13:57:39.828Z,25.50
2019-01-24T14:00:12.465Z,25.03
2019-01-24T14:02:40.335Z,23.20
2019-01-24T14:05:09.555Z,25.47
2019-01-24T14:07:36.724Z,23.33
2019-01-24T14:10:05.148Z,23.13
2019-01-24T14:12:32.438Z,24.13
2019-01-24T14:14:59.487Z,21.00
2019-01-24T14:17:26.690Z,21.13
2019-01-24T14:19:53.874Z,20.40
2019-01-24T14:22:21.052Z,18.63
2019-01-24T14:24:48.176Z,19.50
2019-01-24T14:27:15.378Z,19.53
2019-01-24T14:29:42.616Z,20.03
2019-01-24T14:32:10.042Z,20.47
2019-01-24T14:34:37.405Z,21.60
2019-01-24T14:37:04.648Z,21.33
2019-01-24T14:39:31.851Z,20.23
2019-01-24T14:41:59.264Z,21.07
2019-01-24T14:44:26.650Z,21.37
2019-01-24T14:46:53.887Z,22.23
2019-01-24T14:49:21.054Z,24.47
2019-01-24T14:51:48.232Z,22.67
2019-01-24T14:54:15.199Z,21.90
2019-01-24T14:56:42.167Z,22.50
2019-01-24T14:59:09.510Z,23.70
2019-01-24T15:01:36.532Z,21.93
2019-01-24T15:04:04.054Z,21.63
2019-01-24T15:06:31.071Z,22.53
2019-01-24T15:08:58.557Z,22.03
2019-01-24T15:11:25.771Z,21.23
2019-01-24T15:13:53.158Z,21.93
2019-01-24T15:16:20.119Z,22.00
2019-01-24T15:18:47.187Z,21.97
2019-01-24T15:21:14.688Z,22.47
2019-01-24T15:23:41.772Z,21.90
2019-01-24T15:26:09.970Z,22.50
2019-01-24T15:28:37.075Z,20.03
2019-01-24T15:31:04.723Z,22.33
2019-01-24T15:33:31.967Z,21.30
2019-01-24T15:36:00.087Z,20.60
2019-01-24T15:38:27.223Z,23.03
2019-01-24T15:40:54.391Z,23.23
2019-01-24T15:43:21.422Z,22.07
2019-01-24T15:45:48.588Z,21.83
2019-01-24T15:48:15.891Z,22.43
2019-01-24T15:50:43.056Z,23.67
2019-01-24T15:53:10.109Z,22.80
2019-01-24T15:55:37.164Z,22.90
2019-01-24T15:58:04.439Z,23.23
2019-01-24T16:00:32.169Z,23.53
2019-01-24T16:03:00.152Z,21.97
2019-01-24T16:05:27.255Z,23.30
2019-01-24T16:08:01.323Z,22.70
2019-01-24T16:10:23.839Z,22.77
2019-01-24T16:12:51.191Z,24.00
2019-01-24T16:15:23.259Z,23.20
2019-01-24T16:17:50.370Z,23.63
2019-01-24T16:20:19.668Z,24.10
2019-01-24T16:22:46.803Z,25.10
2019-01-24T16:25:14.757Z,23.60
2019-01-24T16:27:41.835Z,23.23
2019-01-24T16:30:12.818Z,22.90
2019-01-24T16:32:39.996Z,27.98
2019-01-24T16:35:08.331Z,22.93
2019-01-24T16:37:35.617Z,23.70
2019-01-24T16:40:04.547Z,21.60
2019-01-24T16:42:31.578Z,23.70
2019-01-24T16:44:58.670Z,24.67
2019-01-24T16:47:25.679Z,21.70
2019-01-24T16:49:52.911Z,21.93
2019-01-24T16:52:20.454Z,23.43
2019-01-24T16:54:47.775Z,23.60
2019-01-24T16:57:14.885Z,22.37
2019-01-24T16:59:41.997Z,22.83
2019-01-24T17:02:08.987Z,22.23
2019-01-24T17:04:36.606Z,22.57
2019-01-24T17:07:03.890Z,22.47
2019-01-24T17:09:30.919Z,22.50
2019-01-24T17:11:58.380Z,22.47
2019-01-24T17:14:26.551Z,21.50
2019-01-24T17:16:53.688Z,21.97
2019-01-24T17:19:20.692Z,22.87
2019-01-24T17:21:48.070Z,18.93
2019-01-24T17:24:15.151Z,22.00
2019-01-24T17:26:43.268Z,22.43
2019-01-24T17:29:10.426Z,22.47
2019-01-24T17:31:37.466Z,21.80
2019-01-24T17:34:04.980Z,21.20
2019-01-24T17:36:32.056Z,21.27
2019-01-24T17:39:02.397Z,24.87
2019-01-24T17:41:31.392Z,24.50
2019-01-24T17:43:58.359Z,24.60
2019-01-24T17:46:25.318Z,24.27
2019-01-24T17:48:52.522Z,23.30
2019-01-24T17:51:19.780Z,23.03
2019-01-24T17:53:46.924Z,23.57
2019-01-24T17:56:13.910Z,23.57
2019-01-24T17:58:40.938Z,23.20
2019-01-24T18:01:08.027Z,22.83
2019-01-24T18:03:36.200Z,22.00
2019-01-24T18:06:04.067Z,21.20
2019-01-24T18:08:31.755Z,20.53
2019-01-24T18:10:58.735Z,21.07
2019-01-24T18:13:25.998Z,21.00
2019-01-24T18:15:53.095Z,21.60
2019-01-24T18:18:20.351Z,21.40
2019-01-24T18:20:47.403Z,20.13
2019-01-24T18:23:15.065Z,21.80
2019-01-24T18:25:42.237Z,21.37
2019-01-24T18:28:11.175Z,20.37
2019-01-24T18:30:39.183Z,20.13
2019-01-24T18:33:06.638Z,19.80
2019-01-24T18:35:34.087Z,21.27
2019-01-24T18:38:01.563Z,20.33
2019-01-24T18:40:29.212Z,22.30
2019-01-24T18:42:56.510Z,21.17
2019-01-24T18:45:33.268Z,19.80
2019-01-24T18:48:00.495Z,24.00
2019-01-24T18:50:27.915Z,20.73
2019-01-24T18:52:55.281Z,20.27
2019-01-24T18:55:22.506Z,21.17
2019-01-24T18:57:49.708Z,20.70
2019-01-24T19:00:23.194Z,21.87
2019-01-24T19:02:50.299Z,24.53
2019-01-24T19:05:17.480Z,22.90
2019-01-24T19:07:44.597Z,21.63
2019-01-24T19:10:12.145Z,19.33
2019-01-24T19:12:39.413Z,19.00
2019-01-24T19:15:09.655Z,24.03
2019-01-24T19:17:37.768Z,19.70
2019-01-24T19:20:06.374Z,20.23
2019-01-24T19:22:34.475Z,21.80
2019-01-24T19:25:01.472Z,21.67
2019-01-24T19:27:28.860Z,22.43
2019-01-24T19:29:55.823Z,20.73
2019-01-24T19:32:22.811Z,20.30
2019-01-24T19:34:49.804Z,22.53
2019-01-24T19:37:16.833Z,20.20
2019-01-24T19:39:44.100Z,22.33
2019-01-24T19:42:11.088Z,23.33
2019-01-24T19:44:38.147Z,21.13
2019-01-24T19:47:05.138Z,21.70
2019-01-24T19:49:32.484Z,23.47
2019-01-24T19:51:59.480Z,23.57
2019-01-24T19:54:26.463Z,22.97
2019-01-24T19:56:54.529Z,22.90
2019-01-24T19:59:21.623Z,22.90
2019-01-24T20:01:48.747Z,22.87
2019-01-24T20:04:16.076Z,22.03
2019-01-24T20:06:43.177Z,22.57
2019-01-24T20:09:10.611Z,23.70
2019-01-24T20:11:37.677Z,22.23
2019-01-24T20:14:04.995Z,23.53
2019-01-24T20:16:32.148Z,25.07
2019-01-24T20:18:59.246Z,21.87
2019-01-24T20:21:26.356Z,24.90
2019-01-24T20:23:53.355Z,22.73
2019-01-24T20:26:20.393Z,23.40
2019-01-24T20:28:47.855Z,22.97
2019-01-24T20:31:15.980Z,23.00
2019-01-24T20:33:43.066Z,21.70
2019-01-24T20:36:10.715Z,22.30
2019-01-24T20:38:38.277Z,23.07
2019-01-24T20:41:05.560Z,21.20
2019-01-24T20:43:35.523Z,22.13
2019-01-24T20:46:01.791Z,22.63
2019-01-24T20:48:28.908Z,21.20
2019-01-24T20:50:56.065Z,21.63
2019-01-24T20:53:23.310Z,23.57
2019-01-24T20:55:50.492Z,21.93
2019-01-24T20:58:17.587Z,22.73
2019-01-24T21:00:44.779Z,21.20
2019-01-24T21:03:11.883Z,20.60
2019-01-24T21:05:39.065Z,21.57
2019-01-24T21:08:06.181Z,21.80
2019-01-24T21:10:33.470Z,21.97
2019-01-24T21:13:01.023Z,22.27
2019-01-24T21:15:28.399Z,21.67
2019-01-24T21:17:55.538Z,22.47
2019-01-24T21:20:24.123Z,25.53
2019-01-24T21:22:51.455Z,23.30
2019-01-24T21:25:20.086Z,22.83
2019-01-24T21:27:47.288Z,22.33
2019-01-24T21:30:17.161Z,21.70
2019-01-24T21:32:44.833Z,22.20
2019-01-24T21:35:12.817Z,22.00
2019-01-24T21:37:40.070Z,20.87
2019-01-24T21:40:09.331Z,22.37
2019-01-24T21:42:36.656Z,21.50
2019-01-24T21:45:05.175Z,22.63
2019-01-24T21:47:32.267Z,21.43
2019-01-24T21:49:59.681Z,21.40
2019-01-24T21:52:26.930Z,20.93
2019-01-24T21:54:54.030Z,22.37
2019-01-24T21:57:21.230Z,22.17
2019-01-24T21:59:48.352Z,23.27
2019-01-24T22:02:15.362Z,23.30
2019-01-24T22:04:42.329Z,21.20
2019-01-24T22:07:09.696Z,22.17
2019-01-24T22:09:36.815Z,20.93
2019-01-24T22:12:04.078Z,21.20
2019-01-24T22:14:31.291Z,21.50
2019-01-24T22:16:58.859Z,23.00
2019-01-24T22:19:26.309Z,22.43
2019-01-24T22:21:53.380Z,21.33
2019-01-24T22:24:20.458Z,22.87
2019-01-24T22:26:47.499Z,21.00
2019-01-24T22:29:14.636Z,22.27
2019-01-24T22:31:41.731Z,21.27
2019-01-24T22:34:08.804Z,22.10
2019-01-24T22:36:36.060Z,19.97
2019-01-24T22:39:07.068Z,19.67
2019-01-24T22:41:34.104Z,21.33
2019-01-24T22:44:01.213Z,21.10
2019-01-24T22:46:28.477Z,21.37
2019-01-24T22:48:55.500Z,20.77
2019-01-24T22:51:22.931Z,20.70
2019-01-24T22:53:49.984Z,20.70
2019-01-24T22:56:17.151Z,20.00
2019-01-24T22:58:44.169Z,21.40
2019-01-24T23:01:48.082Z,20.63
2019-01-24T23:04:18.002Z,21.93
2019-01-24T23:06:44.996Z,20.07
2019-01-24T23:09:14.127Z,20.17
2019-01-24T23:11:41.451Z,21.40
2019-01-24T23:14:09.200Z,20.23
2019-01-24T23:16:36.219Z,22.73
2019-01-24T23:19:05.128Z,21.50
2019-01-24T23:21:32.403Z,21.73
2019-01-24T23:23:59.512Z,21.17
2019-01-24T23:26:26.763Z,21.20
2019-01-24T23:28:53.840Z,21.10
2019-01-24T23:31:21.156Z,23.20
2019-01-24T23:33:48.155Z,21.67
2019-01-24T23:36:15.429Z,21.63
2019-01-24T23:38:42.718Z,21.27
2019-01-24T23:41:09.934Z,21.53
2019-01-24T23:43:37.203Z,21.67
2019-01-24T23:46:04.507Z,21.83
2019-01-24T23:48:31.629Z,19.53
2019-01-24T23:50:58.868Z,19.77
2019-01-24T23:53:26.083Z,20.43
2019-01-24T23:55:53.631Z,21.50
2019-01-24T23:58:20.865Z,21.50
